createdAt,value
2023-03-13T00:00:36.932Z,-1.55
2023-03-13T00:01:43.842Z,-1.63
2023-03-13T00:02:46.810Z,-1.84
2023-03-13T00:03:49.421Z,-1.68
2023-03-13T00:04:51.523Z,-1.56
2023-03-13T00:05:58.427Z,-1.55
2023-03-13T00:07:01.400Z,-1.58
2023-03-13T00:08:03.864Z,-1.61
2023-03-13T00:09:09.449Z,-1.61
2023-03-13T00:10:11.669Z,-1.73
2023-03-13T00:11:14.741Z,-1.60
2023-03-13T00:12:16.654Z,-1.54
2023-03-13T00:13:18.519Z,-1.53
2023-03-13T00:14:20.424Z,-1.56
2023-03-13T00:15:22.460Z,-1.81
2023-03-13T00:16:26.242Z,-1.77
2023-03-13T00:17:28.318Z,-1.61
2023-03-13T00:18:30.468Z,-1.89
2023-03-13T00:19:32.335Z,-1.78
2023-03-13T00:20:34.532Z,-1.74
2023-03-13T00:21:38.252Z,-1.75
2023-03-13T00:22:40.237Z,-1.81
2023-03-13T00:23:43.316Z,-1.87
2023-03-13T00:24:46.293Z,-1.83
2023-03-13T00:25:48.280Z,-1.69
2023-03-13T00:26:50.366Z,-1.88
2023-03-13T00:27:52.256Z,-1.94
2023-03-13T00:28:54.607Z,-1.86
2023-03-13T00:29:57.706Z,-1.75
2023-03-13T00:31:21.448Z,-1.98
2023-03-13T00:32:23.734Z,-1.85
2023-03-13T00:33:25.739Z,-1.88
2023-03-13T00:34:27.629Z,-1.76
2023-03-13T00:35:29.672Z,-1.70
2023-03-13T00:36:34.806Z,-1.75
2023-03-13T00:37:37.490Z,-1.77
2023-03-13T00:38:39.806Z,-1.90
2023-03-13T00:39:42.052Z,-2.01
2023-03-13T00:40:44.050Z,-1.87
2023-03-13T00:41:46.194Z,-1.85
2023-03-13T00:42:48.473Z,-1.84
2023-03-13T00:43:51.592Z,-1.84
2023-03-13T00:44:53.506Z,-1.90
2023-03-13T00:45:55.681Z,-1.91
2023-03-13T00:46:58.034Z,-1.90
2023-03-13T00:47:59.987Z,-1.85
2023-03-13T00:49:03.137Z,-1.90
2023-03-13T00:50:06.393Z,-1.81
2023-03-13T00:51:09.119Z,-1.79
2023-03-13T00:52:11.180Z,-1.77
2023-03-13T00:53:13.154Z,-1.82
2023-03-13T00:54:15.077Z,-1.74
2023-03-13T00:55:17.167Z,-1.92
2023-03-13T00:56:21.590Z,-1.82
2023-03-13T00:57:23.600Z,-2.07
2023-03-13T00:58:27.866Z,-1.91
2023-03-13T00:59:32.557Z,-1.99
2023-03-13T01:00:34.692Z,-2.04
2023-03-13T01:01:36.571Z,-2.01
2023-03-13T01:02:43.131Z,-2.11
2023-03-13T01:03:48.911Z,-1.95
2023-03-13T01:04:51.056Z,-1.91
2023-03-13T01:05:58.345Z,-1.84
2023-03-13T01:07:00.849Z,-1.84
2023-03-13T01:08:03.142Z,-1.99
2023-03-13T01:09:07.554Z,-2.01
2023-03-13T01:10:11.799Z,-1.89
2023-03-13T01:11:21.379Z,-1.99
2023-03-13T01:12:23.452Z,-2.02
2023-03-13T01:13:26.034Z,-1.89
2023-03-13T01:14:28.565Z,-1.86
2023-03-13T01:15:33.500Z,-1.89
2023-03-13T01:16:36.598Z,-1.83
2023-03-13T01:17:38.621Z,-1.87
2023-03-13T01:18:44.392Z,-1.95
2023-03-13T01:19:46.421Z,-1.97
2023-03-13T01:20:48.873Z,-1.86
2023-03-13T01:21:51.662Z,-1.84
2023-03-13T01:22:53.560Z,-1.85
2023-03-13T01:23:57.616Z,-1.88
2023-03-13T01:24:59.665Z,-1.85
2023-03-13T01:26:07.161Z,-1.80
2023-03-13T01:27:09.199Z,-1.96
2023-03-13T01:28:11.182Z,-1.84
2023-03-13T01:29:13.929Z,-1.91
2023-03-13T01:30:17.208Z,-1.83
2023-03-13T01:31:24.729Z,-1.98
2023-03-13T01:32:26.876Z,-1.89
2023-03-13T01:33:28.798Z,-1.94
2023-03-13T01:34:30.669Z,-1.96
2023-03-13T01:35:35.594Z,-2.00
2023-03-13T01:36:37.986Z,-1.89
2023-03-13T01:37:40.082Z,-1.86
2023-03-13T01:38:43.126Z,-1.96
2023-03-13T01:39:45.003Z,-1.89
2023-03-13T01:40:48.660Z,-1.78
2023-03-13T01:41:50.673Z,-1.80
2023-03-13T01:42:55.046Z,-1.85
2023-03-13T01:43:59.175Z,-1.89
2023-03-13T01:45:01.758Z,-1.84
2023-03-13T01:46:08.991Z,-1.76
2023-03-13T01:47:11.132Z,-1.76
2023-03-13T01:48:13.351Z,-1.74
2023-03-13T01:49:28.320Z,-1.74
2023-03-13T01:50:30.920Z,-1.82
2023-03-13T01:51:45.586Z,-1.77
2023-03-13T01:52:47.911Z,-1.82
2023-03-13T01:53:56.134Z,-1.73
2023-03-13T01:56:19.294Z,-1.93
2023-03-13T01:57:36.757Z,-1.86
2023-03-13T01:58:39.005Z,-2.04
2023-03-13T01:59:50.763Z,-1.92
2023-03-13T02:00:54.802Z,-1.94
2023-03-13T02:02:00.528Z,-1.86
2023-03-13T02:03:06.508Z,-2.08
2023-03-13T02:04:09.181Z,-1.93
2023-03-13T02:05:13.673Z,-1.96
2023-03-13T02:06:17.586Z,-1.88
2023-03-13T02:07:29.171Z,-1.80
2023-03-13T02:08:35.503Z,-1.77
2023-03-13T02:09:41.171Z,-1.98
2023-03-13T02:10:46.947Z,-1.84
2023-03-13T02:12:04.496Z,-1.82
2023-03-13T02:13:06.593Z,-1.84
2023-03-13T02:14:09.545Z,-1.89
2023-03-13T02:15:15.309Z,-1.89
2023-03-13T02:16:19.922Z,-1.99
2023-03-13T02:17:27.243Z,-1.84
2023-03-13T02:18:30.018Z,-1.78
2023-03-13T02:19:46.964Z,-2.02
2023-03-13T02:20:51.910Z,-1.95
2023-03-13T02:22:09.772Z,-1.83
2023-03-13T02:23:20.210Z,-1.81
2023-03-13T02:24:28.905Z,-1.81
2023-03-13T02:25:38.250Z,-1.78
2023-03-13T02:26:40.843Z,-1.89
2023-03-13T02:27:45.456Z,-2.00
2023-03-13T02:28:47.630Z,-1.85
2023-03-13T02:29:51.386Z,-1.87
2023-03-13T02:30:55.517Z,-1.87
2023-03-13T02:31:58.742Z,-1.82
2023-03-13T02:33:04.100Z,-1.91
2023-03-13T02:34:06.663Z,-1.93
2023-03-13T02:35:12.544Z,-1.86
2023-03-13T02:36:17.200Z,-1.88
2023-03-13T02:37:21.212Z,-1.87
2023-03-13T02:38:26.351Z,-1.86
2023-03-13T02:39:31.015Z,-1.95
2023-03-13T02:40:39.800Z,-1.94
2023-03-13T02:41:43.831Z,-1.91
2023-03-13T02:42:49.558Z,-1.91
2023-03-13T02:43:51.948Z,-1.91
2023-03-13T02:44:54.241Z,-1.88
2023-03-13T02:46:05.947Z,-1.98
2023-03-13T02:47:08.204Z,-2.04
2023-03-13T02:48:10.183Z,-1.98
2023-03-13T02:49:28.094Z,-2.01
2023-03-13T02:50:33.443Z,-1.97
2023-03-13T02:51:39.135Z,-2.15
2023-03-13T02:52:44.789Z,-2.05
2023-03-13T02:53:53.176Z,-2.06
2023-03-13T02:54:58.900Z,-1.99
2023-03-13T02:56:02.548Z,-1.98
2023-03-13T02:57:05.662Z,-2.17
2023-03-13T02:58:10.048Z,-2.16
2023-03-13T02:59:12.083Z,-2.12
2023-03-13T03:00:15.785Z,-2.07
2023-03-13T03:01:18.027Z,-2.25
2023-03-13T03:02:21.241Z,-2.17
2023-03-13T03:03:23.184Z,-2.17
2023-03-13T03:04:27.170Z,-2.26
2023-03-13T03:05:29.183Z,-2.20
2023-03-13T03:06:31.509Z,-2.16
2023-03-13T03:07:33.648Z,-2.22
2023-03-13T03:08:35.806Z,-2.25
2023-03-13T03:09:37.669Z,-2.27
2023-03-13T03:10:40.040Z,-2.24
2023-03-13T03:11:44.440Z,-2.42
2023-03-13T03:12:46.394Z,-2.25
2023-03-13T03:13:48.504Z,-2.20
2023-03-13T03:14:50.484Z,-2.17
2023-03-13T03:15:52.599Z,-2.13
2023-03-13T03:16:54.953Z,-2.13
2023-03-13T03:17:58.067Z,-2.15
2023-03-13T03:19:00.236Z,-2.35
2023-03-13T03:20:03.156Z,-2.29
2023-03-13T03:21:06.958Z,-2.30
2023-03-13T03:22:09.887Z,-2.26
2023-03-13T03:23:12.015Z,-2.31
2023-03-13T03:24:13.900Z,-2.24
2023-03-13T03:25:16.988Z,-2.29
2023-03-13T03:26:19.467Z,-2.34
2023-03-13T03:27:21.328Z,-2.26
2023-03-13T03:28:23.231Z,-2.28
2023-03-13T03:29:25.689Z,-2.33
2023-03-13T03:30:27.799Z,-2.29
2023-03-13T03:31:31.082Z,-2.30
2023-03-13T03:32:33.181Z,-2.32
2023-03-13T03:33:36.347Z,-2.29
2023-03-13T03:34:38.583Z,-2.36
2023-03-13T03:35:40.552Z,-2.59
2023-03-13T03:36:42.588Z,-2.75
2023-03-13T03:37:44.464Z,-2.66
2023-03-13T03:38:46.770Z,-2.58
2023-03-13T03:39:48.675Z,-2.73
2023-03-13T03:40:50.651Z,-2.63
2023-03-13T03:41:52.517Z,-2.62
2023-03-13T03:42:54.391Z,-2.67
2023-03-13T03:43:56.589Z,-2.61
2023-03-13T03:44:58.586Z,-2.66
2023-03-13T03:46:02.627Z,-2.65
2023-03-13T03:47:04.909Z,-2.55
2023-03-13T03:48:06.890Z,-2.48
2023-03-13T03:49:08.922Z,-2.45
2023-03-13T03:50:11.085Z,-2.52
2023-03-13T03:51:13.821Z,-2.49
2023-03-13T03:52:15.711Z,-2.41
2023-03-13T03:53:17.701Z,-2.53
2023-03-13T03:54:19.596Z,-2.46
2023-03-13T03:55:21.466Z,-2.39
2023-03-13T03:56:23.499Z,-2.41
2023-03-13T03:57:25.414Z,-2.47
2023-03-13T03:58:28.376Z,-2.42
2023-03-13T03:59:30.756Z,-2.44
2023-03-13T04:00:33.208Z,-2.63
2023-03-13T04:01:35.241Z,-2.66
2023-03-13T04:02:38.774Z,-2.64
2023-03-13T04:03:40.875Z,-2.56
2023-03-13T04:04:42.934Z,-2.63
2023-03-13T04:05:44.802Z,-2.58
2023-03-13T04:06:47.030Z,-2.75
2023-03-13T04:07:49.012Z,-2.63
2023-03-13T04:08:50.889Z,-2.52
2023-03-13T04:09:52.755Z,-2.48
2023-03-13T04:10:54.743Z,-2.50
2023-03-13T04:11:56.632Z,-2.43
2023-03-13T04:12:58.525Z,-2.41
2023-03-13T04:14:00.408Z,-2.44
2023-03-13T04:15:03.253Z,-2.47
2023-03-13T04:16:10.888Z,-2.50
2023-03-13T04:17:13.270Z,-2.50
2023-03-13T04:18:15.262Z,-2.58
2023-03-13T04:19:17.173Z,-2.54
2023-03-13T04:20:19.390Z,-2.56
2023-03-13T04:21:22.813Z,-2.59
2023-03-13T04:22:25.127Z,-2.56
2023-03-13T04:23:28.559Z,-2.53
2023-03-13T04:24:31.847Z,-2.53
2023-03-13T04:25:35.224Z,-2.53
2023-03-13T04:26:37.380Z,-2.49
2023-03-13T04:27:39.605Z,-2.52
2023-03-13T04:28:41.599Z,-2.49
2023-03-13T04:29:43.797Z,-2.56
2023-03-13T04:30:45.976Z,-2.52
2023-03-13T04:31:48.039Z,-2.51
2023-03-13T04:32:50.052Z,-2.52
2023-03-13T04:33:52.032Z,-2.51
2023-03-13T04:34:53.966Z,-2.44
2023-03-13T04:35:56.010Z,-2.51
2023-03-13T04:36:58.668Z,-2.47
2023-03-13T04:38:01.593Z,-2.46
2023-03-13T04:39:03.991Z,-2.56
2023-03-13T04:40:07.629Z,-2.64
2023-03-13T04:41:09.854Z,-2.68
2023-03-13T04:42:12.098Z,-2.66
2023-03-13T04:43:14.569Z,-2.66
2023-03-13T04:44:16.601Z,-2.65
2023-03-13T04:45:19.933Z,-2.66
2023-03-13T04:46:22.840Z,-2.71
2023-03-13T04:47:24.986Z,-2.72
2023-03-13T04:48:27.410Z,-2.71
2023-03-13T04:49:29.778Z,-2.70
2023-03-13T04:50:32.013Z,-2.65
2023-03-13T04:51:34.029Z,-2.68
2023-03-13T04:52:36.059Z,-2.68
2023-03-13T04:53:38.673Z,-2.70
2023-03-13T04:54:40.765Z,-2.66
2023-03-13T04:55:43.303Z,-2.80
2023-03-13T04:56:46.976Z,-2.81
2023-03-13T04:57:49.239Z,-2.75
2023-03-13T04:58:51.808Z,-2.68
2023-03-13T04:59:53.722Z,-2.71
2023-03-13T05:00:56.079Z,-2.70
2023-03-13T05:01:58.111Z,-2.60
2023-03-13T05:03:00.008Z,-2.47
2023-03-13T05:04:02.938Z,-2.47
2023-03-13T05:05:05.252Z,-2.45
2023-03-13T05:06:08.998Z,-2.40
2023-03-13T05:07:11.034Z,-2.41
2023-03-13T05:08:13.227Z,-2.60
2023-03-13T05:09:15.101Z,-2.48
2023-03-13T05:10:17.415Z,-2.45
2023-03-13T05:11:19.437Z,-2.40
2023-03-13T05:12:21.446Z,-2.40
2023-03-13T05:13:23.499Z,-2.37
2023-03-13T05:14:26.760Z,-2.37
2023-03-13T05:15:28.800Z,-2.30
2023-03-13T05:16:31.040Z,-2.26
2023-03-13T05:17:33.151Z,-2.21
2023-03-13T05:18:35.104Z,-2.16
2023-03-13T05:19:38.260Z,-2.18
2023-03-13T05:20:40.471Z,-2.21
2023-03-13T05:21:43.544Z,-2.21
2023-03-13T05:22:45.588Z,-2.14
2023-03-13T05:23:47.532Z,-2.10
2023-03-13T05:24:49.407Z,-2.04
2023-03-13T05:25:51.837Z,-2.04
2023-03-13T05:26:54.685Z,-1.98
2023-03-13T05:27:58.767Z,-1.93
2023-03-13T05:29:01.273Z,-1.95
2023-03-13T05:30:04.511Z,-1.93
2023-03-13T05:31:06.612Z,-1.89
2023-03-13T05:32:08.953Z,-1.85
2023-03-13T05:33:11.105Z,-1.94
2023-03-13T05:34:13.077Z,-1.86
2023-03-13T05:35:14.966Z,-1.82
2023-03-13T05:36:17.070Z,-1.78
2023-03-13T05:37:19.216Z,-1.77
2023-03-13T05:38:21.452Z,-1.69
2023-03-13T05:39:23.844Z,-1.68
2023-03-13T05:40:25.942Z,-1.69
2023-03-13T05:41:27.841Z,-1.63
2023-03-13T05:42:29.735Z,-1.63
2023-03-13T05:43:31.732Z,-1.56
2023-03-13T05:44:33.810Z,-1.56
2023-03-13T05:45:36.926Z,-1.77
2023-03-13T05:46:39.107Z,-1.62
2023-03-13T05:47:41.405Z,-1.59
2023-03-13T05:48:43.317Z,-1.60
2023-03-13T05:49:45.185Z,-1.72
2023-03-13T05:50:47.392Z,-1.65
2023-03-13T05:51:49.878Z,-1.60
2023-03-13T05:52:52.773Z,-1.48
2023-03-13T05:53:54.671Z,-1.35
2023-03-13T05:54:56.542Z,-1.45
2023-03-13T05:55:58.479Z,-1.42
2023-03-13T05:57:00.865Z,-1.27
2023-03-13T05:58:02.974Z,-1.34
2023-03-13T05:59:04.841Z,-1.19
2023-03-13T06:00:09.781Z,-1.23
2023-03-13T06:01:14.304Z,-1.18
2023-03-13T06:02:16.266Z,-1.16
2023-03-13T06:03:18.197Z,-1.19
2023-03-13T06:04:20.574Z,-1.09
2023-03-13T06:05:22.805Z,-0.97
2023-03-13T06:06:24.865Z,-0.87
2023-03-13T06:07:26.733Z,-0.72
2023-03-13T06:08:29.069Z,-0.81
2023-03-13T06:09:31.592Z,-0.63
2023-03-13T06:10:33.874Z,-0.53
2023-03-13T06:11:35.756Z,-0.51
2023-03-13T06:12:38.420Z,-0.58
2023-03-13T06:13:40.404Z,-0.37
2023-03-13T06:14:42.481Z,-0.30
2023-03-13T06:15:53.311Z,-0.31
2023-03-13T06:16:56.259Z,-0.14
2023-03-13T06:17:58.148Z,-0.09
2023-03-13T06:19:00.142Z,0.10
2023-03-13T06:20:03.441Z,0.27
2023-03-13T06:21:05.647Z,0.45
2023-03-13T06:22:08.027Z,0.41
2023-03-13T06:23:10.312Z,0.42
2023-03-13T06:24:12.194Z,0.52
2023-03-13T06:25:14.650Z,0.48
2023-03-13T06:26:16.867Z,0.59
2023-03-13T06:27:18.856Z,0.55
2023-03-13T06:28:21.631Z,0.86
2023-03-13T06:29:23.768Z,1.02
2023-03-13T06:30:25.751Z,1.04
2023-03-13T06:31:27.835Z,0.62
2023-03-13T06:32:31.773Z,0.79
2023-03-13T06:33:34.227Z,1.18
2023-03-13T06:34:37.869Z,1.34
2023-03-13T06:35:55.311Z,1.24
2023-03-13T06:36:45.757Z,1.29
2023-03-13T06:37:47.752Z,1.24
2023-03-13T06:38:51.554Z,1.48
2023-03-13T06:39:53.624Z,1.19
2023-03-13T06:40:55.933Z,1.24
2023-03-13T06:41:58.428Z,1.53
2023-03-13T06:43:00.711Z,1.43
2023-03-13T06:44:03.454Z,1.23
2023-03-13T06:45:06.720Z,1.32
2023-03-13T06:46:18.139Z,1.44
2023-03-13T06:47:21.383Z,1.30
2023-03-13T06:48:23.413Z,1.45
2023-03-13T06:49:25.481Z,1.43
2023-03-13T06:50:28.046Z,1.53
2023-03-13T06:51:30.254Z,1.41
2023-03-13T06:52:43.181Z,1.44
2023-03-13T06:53:35.990Z,1.22
2023-03-13T06:54:37.893Z,1.30
2023-03-13T06:55:39.792Z,1.34
2023-03-13T06:56:42.144Z,1.13
2023-03-13T06:57:44.138Z,0.96
2023-03-13T06:58:47.395Z,1.27
2023-03-13T06:59:49.462Z,1.51
2023-03-13T07:00:51.516Z,1.56
2023-03-13T07:01:56.678Z,1.62
2023-03-13T07:02:58.764Z,1.61
2023-03-13T07:04:00.884Z,1.71
2023-03-13T07:05:03.967Z,1.42
2023-03-13T07:06:07.777Z,1.35
2023-03-13T07:07:13.193Z,1.52
2023-03-13T07:08:13.512Z,1.47
2023-03-13T07:09:16.780Z,1.71
2023-03-13T07:10:19.215Z,1.50
2023-03-13T07:11:21.497Z,1.55
2023-03-13T07:12:23.395Z,1.79
2023-03-13T07:13:26.317Z,1.90
2023-03-13T07:14:28.738Z,1.55
2023-03-13T07:15:31.981Z,1.84
2023-03-13T07:16:34.231Z,1.56
2023-03-13T07:17:36.961Z,1.60
2023-03-13T07:18:40.274Z,1.70
2023-03-13T07:19:42.709Z,1.83
2023-03-13T07:20:47.398Z,1.57
2023-03-13T07:21:49.316Z,1.58
2023-03-13T07:22:52.978Z,1.93
2023-03-13T07:23:55.017Z,2.11
2023-03-13T07:24:57.046Z,2.13
2023-03-13T07:26:01.934Z,1.98
2023-03-13T07:27:07.516Z,2.08
2023-03-13T07:28:07.740Z,2.22
2023-03-13T07:29:09.928Z,2.45
2023-03-13T07:30:14.020Z,2.43
2023-03-13T07:31:20.537Z,2.33
2023-03-13T07:32:22.811Z,2.63
2023-03-13T07:33:24.831Z,2.83
2023-03-13T07:34:26.725Z,2.95
2023-03-13T07:35:28.960Z,3.13
2023-03-13T07:36:31.039Z,2.82
2023-03-13T07:37:33.157Z,2.54
2023-03-13T07:38:35.131Z,2.90
2023-03-13T07:39:37.084Z,2.72
2023-03-13T07:40:39.310Z,2.57
2023-03-13T07:41:41.350Z,2.54
2023-03-13T07:42:43.251Z,2.19
2023-03-13T07:43:46.794Z,2.53
2023-03-13T07:44:48.759Z,2.48
2023-03-13T07:45:57.242Z,2.61
2023-03-13T07:47:00.684Z,2.39
2023-03-13T07:48:02.858Z,2.49
2023-03-13T07:49:04.823Z,2.63
2023-03-13T07:50:08.728Z,3.01
2023-03-13T07:51:17.312Z,3.18
2023-03-13T07:52:19.420Z,3.46
2023-03-13T07:53:23.034Z,3.31
2023-03-13T07:54:25.484Z,3.22
2023-03-13T07:55:27.444Z,3.09
2023-03-13T07:56:29.427Z,2.94
2023-03-13T07:57:31.309Z,3.14
2023-03-13T07:58:35.751Z,3.23
2023-03-13T07:59:37.749Z,3.32
2023-03-13T08:00:39.733Z,3.59
2023-03-13T08:01:41.970Z,3.76
2023-03-13T08:02:43.941Z,3.78
2023-03-13T08:03:46.628Z,3.78
2023-03-13T08:06:03.163Z,3.69
2023-03-13T08:07:09.380Z,3.54
2023-03-13T08:08:11.471Z,2.95
2023-03-13T08:09:14.765Z,3.39
2023-03-13T08:10:17.053Z,3.18
2023-03-13T08:11:21.368Z,3.04
2023-03-13T08:12:23.327Z,3.48
2023-03-13T08:13:25.203Z,3.80
2023-03-13T08:14:27.286Z,3.87
2023-03-13T08:15:29.588Z,3.84
2023-03-13T08:16:33.668Z,3.81
2023-03-13T08:17:35.833Z,3.89
2023-03-13T08:18:40.617Z,3.99
2023-03-13T08:19:42.567Z,4.11
2023-03-13T08:20:45.713Z,4.20
2023-03-13T08:21:47.767Z,4.34
2023-03-13T08:22:52.123Z,4.01
2023-03-13T08:23:56.522Z,4.25
2023-03-13T08:24:58.458Z,4.03
2023-03-13T08:26:11.997Z,3.29
2023-03-13T08:27:13.950Z,3.50
2023-03-13T08:28:15.801Z,3.43
2023-03-13T08:29:18.963Z,3.51
2023-03-13T08:30:21.361Z,3.48
2023-03-13T08:32:37.790Z,3.51
2023-03-13T08:33:42.547Z,3.37
2023-03-13T08:34:44.740Z,3.55
2023-03-13T08:35:47.658Z,3.55
2023-03-13T08:36:49.835Z,3.38
2023-03-13T08:37:51.791Z,3.68
2023-03-13T08:38:55.213Z,3.73
2023-03-13T08:39:57.143Z,3.47
2023-03-13T08:40:59.136Z,3.62
2023-03-13T08:42:01.013Z,3.55
2023-03-13T08:43:02.959Z,3.63
2023-03-13T08:44:05.343Z,3.33
2023-03-13T08:45:08.999Z,3.25
2023-03-13T08:46:11.526Z,3.67
2023-03-13T08:47:14.007Z,3.94
2023-03-13T08:48:16.561Z,3.42
2023-03-13T08:49:18.484Z,3.64
2023-03-13T08:50:20.460Z,3.49
2023-03-13T08:51:25.018Z,3.55
2023-03-13T08:52:27.045Z,3.48
2023-03-13T08:53:30.401Z,3.66
2023-03-13T08:54:33.803Z,3.74
2023-03-13T08:55:35.772Z,3.87
2023-03-13T08:56:38.153Z,3.86
2023-03-13T08:57:40.090Z,3.93
2023-03-13T08:58:47.616Z,3.80
2023-03-13T08:59:51.345Z,4.04
2023-03-13T09:00:55.856Z,4.27
2023-03-13T09:01:59.604Z,3.80
2023-03-13T09:03:02.754Z,3.92
2023-03-13T09:04:08.513Z,4.00
2023-03-13T09:05:10.578Z,3.98
2023-03-13T09:06:13.898Z,4.05
2023-03-13T09:07:15.808Z,3.73
2023-03-13T09:08:17.683Z,4.00
2023-03-13T09:09:19.602Z,4.08
2023-03-13T09:10:21.572Z,3.84
2023-03-13T09:11:24.106Z,4.15
2023-03-13T09:12:31.196Z,3.97
2023-03-13T09:13:33.660Z,4.17
2023-03-13T09:14:36.784Z,4.23
2023-03-13T09:15:38.954Z,3.97
2023-03-13T09:16:40.921Z,3.93
2023-03-13T09:17:42.784Z,3.98
2023-03-13T09:18:45.822Z,4.21
2023-03-13T09:19:59.719Z,4.11
2023-03-13T09:20:52.425Z,4.31
2023-03-13T09:21:54.407Z,4.29
2023-03-13T09:22:56.304Z,4.31
2023-03-13T09:23:59.120Z,4.12
2023-03-13T09:25:01.028Z,4.01
2023-03-13T09:26:04.780Z,4.02
2023-03-13T09:27:06.690Z,4.13
2023-03-13T09:28:09.456Z,4.19
2023-03-13T09:29:11.684Z,4.30
2023-03-13T09:30:14.780Z,3.93
2023-03-13T09:31:19.773Z,3.87
2023-03-13T09:32:22.053Z,4.15
2023-03-13T09:33:24.078Z,4.19
2023-03-13T09:34:26.097Z,4.19
2023-03-13T09:35:28.267Z,4.28
2023-03-13T09:36:30.433Z,4.56
2023-03-13T09:37:32.363Z,4.04
2023-03-13T09:38:35.146Z,4.45
2023-03-13T09:39:37.261Z,4.71
2023-03-13T09:40:56.470Z,4.60
2023-03-13T09:41:52.609Z,4.54
2023-03-13T09:42:58.036Z,4.37
2023-03-13T09:44:03.747Z,4.26
2023-03-13T09:45:09.503Z,4.14
2023-03-13T09:46:27.653Z,4.32
2023-03-13T09:47:39.996Z,4.15
2023-03-13T09:48:51.465Z,4.26
2023-03-13T09:50:01.112Z,4.17
2023-03-13T09:51:25.223Z,4.21
2023-03-13T09:52:36.614Z,4.24
2023-03-13T09:53:48.325Z,4.58
2023-03-13T09:55:02.783Z,4.79
2023-03-13T09:56:08.767Z,4.72
2023-03-13T09:57:26.490Z,4.76
2023-03-13T09:58:31.311Z,4.58
2023-03-13T09:59:43.240Z,4.51
2023-03-13T10:00:49.221Z,4.60
2023-03-13T10:01:54.795Z,4.67
2023-03-13T10:03:12.597Z,4.80
2023-03-13T10:04:21.303Z,4.62
2023-03-13T10:05:29.014Z,4.98
2023-03-13T10:06:37.868Z,5.10
2023-03-13T10:07:40.440Z,5.22
2023-03-13T10:08:42.396Z,4.98
2023-03-13T10:09:44.447Z,4.69
2023-03-13T10:11:02.198Z,4.99
2023-03-13T10:12:14.870Z,5.11
2023-03-13T10:14:41.329Z,5.08
2023-03-13T10:15:55.719Z,5.25
2023-03-13T10:17:07.383Z,5.33
2023-03-13T10:18:14.481Z,5.11
2023-03-13T10:19:28.647Z,5.15
2023-03-13T10:20:36.365Z,4.98
2023-03-13T10:21:41.050Z,5.16
2023-03-13T10:22:46.744Z,5.14
2023-03-13T10:23:55.217Z,5.36
2023-03-13T10:25:09.880Z,5.17
2023-03-13T10:26:18.449Z,5.25
2023-03-13T10:27:20.524Z,5.44
2023-03-13T10:28:22.705Z,5.82
2023-03-13T10:29:27.258Z,5.78
2023-03-13T10:30:34.411Z,5.98
2023-03-13T10:31:37.958Z,5.91
2023-03-13T10:32:40.977Z,5.71
2023-03-13T10:33:43.962Z,5.53
2023-03-13T10:34:55.405Z,5.74
2023-03-13T10:36:13.206Z,5.85
2023-03-13T10:37:18.940Z,5.89
2023-03-13T10:38:23.494Z,5.79
2023-03-13T10:39:28.418Z,5.79
2023-03-13T10:40:30.617Z,5.73
2023-03-13T10:41:37.423Z,5.96
2023-03-13T10:42:45.168Z,5.82
2023-03-13T10:45:05.375Z,5.67
2023-03-13T10:46:09.734Z,5.64
2023-03-13T10:47:14.365Z,5.54
2023-03-13T10:48:24.273Z,5.31
2023-03-13T10:49:26.986Z,5.39
2023-03-13T10:50:34.188Z,5.48
2023-03-13T10:51:38.859Z,5.58
2023-03-13T10:52:46.073Z,5.53
2023-03-13T10:53:48.543Z,5.62
2023-03-13T10:54:52.368Z,5.59
2023-03-13T10:56:00.220Z,5.47
2023-03-13T10:57:11.885Z,5.58
2023-03-13T10:58:29.374Z,5.66
2023-03-13T10:59:32.391Z,5.70
2023-03-13T11:00:37.607Z,5.77
2023-03-13T11:01:42.726Z,5.80
2023-03-13T11:02:45.617Z,5.88
2023-03-13T11:03:49.966Z,5.57
2023-03-13T11:04:53.228Z,5.50
2023-03-13T11:06:01.472Z,5.42
2023-03-13T11:07:16.184Z,5.33
2023-03-13T11:08:22.049Z,5.24
2023-03-13T11:09:24.242Z,5.24
2023-03-13T11:10:29.144Z,5.44
2023-03-13T11:11:34.857Z,5.35
2023-03-13T11:12:40.515Z,5.36
2023-03-13T11:13:44.003Z,5.32
2023-03-13T11:14:46.224Z,5.46
2023-03-13T11:15:54.938Z,5.48
2023-03-13T11:17:22.258Z,5.64
2023-03-13T11:18:30.941Z,5.52
2023-03-13T11:19:48.955Z,5.41
2023-03-13T11:20:51.674Z,5.45
2023-03-13T11:22:09.330Z,5.22
2023-03-13T11:23:21.033Z,5.23
2023-03-13T11:24:33.958Z,5.16
2023-03-13T11:25:45.077Z,5.27
2023-03-13T11:27:04.744Z,5.38
2023-03-13T11:28:05.986Z,5.39
2023-03-13T11:29:14.891Z,5.41
2023-03-13T11:30:22.396Z,5.39
2023-03-13T11:31:37.464Z,5.42
2023-03-13T11:32:48.817Z,5.61
2023-03-13T11:34:01.060Z,5.71
2023-03-13T11:35:06.967Z,5.80
2023-03-13T11:36:16.328Z,5.81
2023-03-13T11:37:21.639Z,5.26
2023-03-13T11:38:36.039Z,5.26
2023-03-13T11:40:13.714Z,5.37
2023-03-13T11:41:40.667Z,5.44
2023-03-13T11:42:58.615Z,5.43
2023-03-13T11:44:19.370Z,5.59
2023-03-13T11:45:58.740Z,5.67
2023-03-13T11:47:26.482Z,5.61
2023-03-13T11:48:50.442Z,5.69
2023-03-13T11:50:16.658Z,5.88
2023-03-13T11:51:25.558Z,6.03
2023-03-13T11:53:05.141Z,5.77
2023-03-13T11:54:43.554Z,5.76
2023-03-13T11:55:52.299Z,5.90
2023-03-13T11:58:26.249Z,5.99
2023-03-13T11:59:44.691Z,6.14
2023-03-13T12:01:08.913Z,6.17
2023-03-13T12:02:30.183Z,6.24
2023-03-13T12:03:55.968Z,6.22
2023-03-13T12:05:01.938Z,6.27
2023-03-13T12:06:13.272Z,6.22
2023-03-13T12:07:18.185Z,6.19
2023-03-13T12:08:42.290Z,6.37
2023-03-13T12:09:50.075Z,6.49
2023-03-13T12:11:12.712Z,6.51
2023-03-13T12:12:35.263Z,6.47
2023-03-13T12:13:41.302Z,6.24
2023-03-13T12:15:58.332Z,6.26
2023-03-13T12:17:10.052Z,6.42
2023-03-13T12:18:30.883Z,6.32
2023-03-13T12:19:42.580Z,6.32
2023-03-13T12:20:57.974Z,6.44
2023-03-13T12:22:03.737Z,6.44
2023-03-13T12:23:21.588Z,6.37
2023-03-13T12:24:39.288Z,6.29
2023-03-13T12:25:53.623Z,6.48
2023-03-13T12:28:25.626Z,6.76
2023-03-13T12:30:00.783Z,6.61
2023-03-13T12:31:08.922Z,6.68
2023-03-13T12:33:33.731Z,6.82
2023-03-13T12:34:51.712Z,6.82
2023-03-13T12:36:00.416Z,6.64
2023-03-13T12:37:33.089Z,6.77
2023-03-13T12:38:52.022Z,6.89
2023-03-13T12:40:17.610Z,6.73
2023-03-13T12:41:35.068Z,6.73
2023-03-13T12:42:48.689Z,6.82
2023-03-13T12:44:09.254Z,6.77
2023-03-13T12:44:59.167Z,6.60
2023-03-13T12:46:31.590Z,6.56
2023-03-13T12:47:49.572Z,6.53
2023-03-13T12:48:58.226Z,6.58
2023-03-13T12:50:22.011Z,6.73
2023-03-13T12:51:44.458Z,6.73
2023-03-13T12:53:21.045Z,6.63
2023-03-13T12:56:03.596Z,6.73
2023-03-13T12:57:44.705Z,6.49
2023-03-13T12:58:53.546Z,6.58
2023-03-13T13:00:01.463Z,6.61
2023-03-13T13:01:06.229Z,6.70
2023-03-13T13:02:14.958Z,6.58
2023-03-13T13:03:23.420Z,6.71
2023-03-13T13:04:35.068Z,6.76
2023-03-13T13:05:37.570Z,6.72
2023-03-13T13:06:55.631Z,6.62
2023-03-13T13:07:57.893Z,6.62
2023-03-13T13:09:09.403Z,6.58
2023-03-13T13:10:15.312Z,6.60
2023-03-13T13:11:40.728Z,6.67
2023-03-13T13:12:50.523Z,6.62
2023-03-13T13:13:52.579Z,6.59
2023-03-13T13:15:01.205Z,6.72
2023-03-13T13:16:10.282Z,6.73
2023-03-13T13:17:19.110Z,6.70
2023-03-13T13:18:27.484Z,6.60
2023-03-13T13:19:44.687Z,6.77
2023-03-13T13:20:48.754Z,6.77
2023-03-13T13:22:29.129Z,6.86
2023-03-13T13:23:43.060Z,6.82
2023-03-13T13:24:50.796Z,6.85
2023-03-13T13:25:56.475Z,6.93
2023-03-13T13:27:00.765Z,6.81
2023-03-13T13:28:18.231Z,6.83
2023-03-13T13:29:23.924Z,6.79
2023-03-13T13:30:32.261Z,6.82
2023-03-13T13:31:50.479Z,6.82
2023-03-13T13:32:58.155Z,6.74
2023-03-13T13:34:00.451Z,6.83
2023-03-13T13:35:05.653Z,6.92
2023-03-13T13:36:12.551Z,6.78
2023-03-13T13:37:21.951Z,6.78
2023-03-13T13:38:29.866Z,6.75
2023-03-13T13:39:38.568Z,6.69
2023-03-13T13:41:02.824Z,6.69
2023-03-13T13:42:31.629Z,6.75
2023-03-13T13:43:41.489Z,6.74
2023-03-13T13:45:01.084Z,6.80
2023-03-13T13:46:32.586Z,6.72
2023-03-13T13:47:34.977Z,6.74
2023-03-13T13:48:37.885Z,6.74
2023-03-13T13:51:03.671Z,6.81
2023-03-13T13:52:09.382Z,6.68
2023-03-13T13:53:29.626Z,6.73
2023-03-13T13:54:47.595Z,6.72
2023-03-13T13:55:49.831Z,6.73
2023-03-13T13:58:22.538Z,6.80
2023-03-13T13:59:44.970Z,6.75
2023-03-13T14:01:02.665Z,6.83
2023-03-13T14:02:10.165Z,6.88
2023-03-13T14:03:22.431Z,6.88
2023-03-13T14:04:31.117Z,6.92
2023-03-13T14:05:34.553Z,6.90
2023-03-13T14:06:38.832Z,6.90
2023-03-13T14:07:44.538Z,6.83
2023-03-13T14:08:50.056Z,6.89
2023-03-13T14:09:59.520Z,6.93
2023-03-13T14:11:17.539Z,6.82
2023-03-13T14:12:35.099Z,6.88
2023-03-13T14:13:37.136Z,6.88
2023-03-13T14:14:39.049Z,6.91
2023-03-13T14:15:43.877Z,6.95
2023-03-13T14:16:49.416Z,6.92
2023-03-13T14:17:57.306Z,6.89
2023-03-13T14:18:59.235Z,6.83
2023-03-13T14:20:01.845Z,6.75
2023-03-13T14:21:06.553Z,6.82
2023-03-13T14:22:11.245Z,6.84
2023-03-13T14:23:14.051Z,6.86
2023-03-13T14:24:16.539Z,6.82
2023-03-13T14:25:20.462Z,6.79
2023-03-13T14:26:25.742Z,6.89
2023-03-13T14:27:27.800Z,6.79
2023-03-13T14:28:30.963Z,6.80
2023-03-13T14:29:32.883Z,6.80
2023-03-13T14:30:38.714Z,6.76
2023-03-13T14:31:41.529Z,6.77
2023-03-13T14:32:44.811Z,6.76
2023-03-13T14:33:47.547Z,6.76
2023-03-13T14:34:49.705Z,6.82
2023-03-13T14:35:52.217Z,6.77